createdAt,value
2019-01-23T00:00:38.373Z,84.73
2019-01-23T00:03:05.743Z,87.10
2019-01-23T00:05:33.148Z,76.07
2019-01-23T00:08:00.626Z,90.63
2019-01-23T00:10:28.024Z,96.93
2019-01-23T00:12:55.302Z,91.17
2019-01-23T00:15:22.947Z,98.60
2019-01-23T00:17:51.699Z,91.53
2019-01-23T00:20:18.678Z,96.37
2019-01-23T00:22:45.726Z,108.00
2019-01-23T00:25:13.170Z,96.20
2019-01-23T00:27:40.576Z,98.53
2019-01-23T00:30:08.455Z,85.97
2019-01-23T00:32:36.148Z,95.67
2019-01-23T00:35:03.828Z,94.63
2019-01-23T00:37:31.356Z,78.83
2019-01-23T00:39:58.516Z,80.37
2019-01-23T00:42:25.710Z,80.73
2019-01-23T00:44:52.960Z,75.67
2019-01-23T00:47:20.180Z,86.20
2019-01-23T00:49:47.394Z,92.10
2019-01-23T00:52:14.369Z,70.17
2019-01-23T00:54:41.371Z,75.17
2019-01-23T00:57:08.184Z,87.30
2019-01-23T00:59:36.141Z,81.53
2019-01-23T01:02:03.360Z,91.87
2019-01-23T01:04:30.175Z,71.87
2019-01-23T01:06:58.546Z,97.90
2019-01-23T01:09:25.762Z,95.50
2019-01-23T01:11:52.772Z,79.33
2019-01-23T01:14:19.618Z,84.33
2019-01-23T01:16:46.528Z,78.10
2019-01-23T01:19:13.428Z,93.10
2019-01-23T01:21:40.583Z,93.10
2019-01-23T01:24:07.444Z,82.33
2019-01-23T01:26:34.267Z,86.33
2019-01-23T01:29:01.692Z,80.67
2019-01-23T01:31:28.657Z,89.23
2019-01-23T01:33:55.555Z,64.40
2019-01-23T01:36:22.427Z,78.17
2019-01-23T01:38:49.328Z,71.67
2019-01-23T01:41:16.312Z,67.70
2019-01-23T01:43:43.193Z,71.23
2019-01-23T01:46:10.107Z,89.87
2019-01-23T01:48:36.976Z,87.80
2019-01-23T01:51:04.196Z,92.43
2019-01-23T01:53:31.052Z,81.73
2019-01-23T01:55:58.076Z,69.87
2019-01-23T01:58:24.931Z,70.57
2019-01-23T02:00:51.880Z,75.13
2019-01-23T02:03:18.728Z,65.37
2019-01-23T02:05:45.704Z,89.50
2019-01-23T02:08:12.558Z,76.30
2019-01-23T02:10:39.446Z,85.07
2019-01-23T02:13:06.296Z,74.07
2019-01-23T02:15:33.269Z,111.67
2019-01-23T02:18:00.307Z,96.50
2019-01-23T02:20:27.260Z,84.33
2019-01-23T02:22:54.212Z,50.40
2019-01-23T02:25:21.393Z,89.00
2019-01-23T02:27:51.072Z,80.73
2019-01-23T02:30:22.306Z,69.10
2019-01-23T02:32:49.199Z,117.90
2019-01-23T02:35:16.226Z,100.80
2019-01-23T02:37:43.205Z,60.93
2019-01-23T02:40:11.806Z,90.33
2019-01-23T02:42:38.669Z,91.97
2019-01-23T02:45:05.608Z,112.63
2019-01-23T02:47:32.454Z,113.43
2019-01-23T02:49:59.307Z,81.63
2019-01-23T02:52:26.253Z,68.33
2019-01-23T02:54:53.113Z,89.23
2019-01-23T02:57:20.070Z,103.80
2019-01-23T02:59:49.639Z,90.70
2019-01-23T03:02:16.573Z,77.73
2019-01-23T03:04:43.445Z,98.63
2019-01-23T03:07:10.409Z,75.97
2019-01-23T03:09:37.280Z,97.43
2019-01-23T03:12:04.140Z,109.57
2019-01-23T03:14:30.988Z,92.53
2019-01-23T03:16:57.833Z,110.03
2019-01-23T03:19:25.569Z,93.77
2019-01-23T03:21:52.535Z,78.67
2019-01-23T03:24:22.431Z,99.57
2019-01-23T03:26:49.556Z,90.77
2019-01-23T03:29:16.410Z,102.30
2019-01-23T03:31:43.353Z,93.73
2019-01-23T03:34:10.267Z,109.70
2019-01-23T03:36:37.159Z,87.83
2019-01-23T03:39:05.555Z,127.30
2019-01-23T03:41:32.432Z,98.83
2019-01-23T03:43:59.347Z,118.70
2019-01-23T03:46:26.198Z,107.37
2019-01-23T03:48:53.077Z,100.23
2019-01-23T03:51:19.920Z,88.23
2019-01-23T03:53:46.760Z,113.37
2019-01-23T03:56:13.615Z,118.70
2019-01-23T03:58:40.625Z,91.47
2019-01-23T04:01:07.469Z,100.30
2019-01-23T04:03:34.583Z,80.27
2019-01-23T04:06:01.348Z,77.90
2019-01-23T04:08:28.167Z,121.43
2019-01-23T04:10:55.048Z,73.07
2019-01-23T04:13:21.906Z,109.50
2019-01-23T04:15:48.724Z,95.73
2019-01-23T04:18:15.628Z,104.70
2019-01-23T04:20:42.474Z,112.27
2019-01-23T04:23:09.301Z,111.37
2019-01-23T04:25:36.277Z,102.30
2019-01-23T04:28:03.119Z,86.87
2019-01-23T04:30:29.945Z,94.83
2019-01-23T04:32:57.020Z,121.93
2019-01-23T04:35:23.957Z,80.30
2019-01-23T04:37:50.787Z,86.67
2019-01-23T04:40:17.825Z,112.23
2019-01-23T04:42:44.648Z,111.33
2019-01-23T04:45:12.124Z,115.83
2019-01-23T04:47:39.044Z,100.27
2019-01-23T04:50:06.645Z,89.93
2019-01-23T04:52:44.670Z,102.53
2019-01-23T04:55:11.519Z,99.30
2019-01-23T04:57:38.468Z,84.07
2019-01-23T05:00:05.991Z,111.43
2019-01-23T05:02:32.897Z,84.83
2019-01-23T05:04:59.711Z,79.50
2019-01-23T05:07:26.592Z,75.63
2019-01-23T05:09:53.408Z,77.77
2019-01-23T05:12:20.265Z,85.90
2019-01-23T05:14:47.347Z,91.60
2019-01-23T05:17:14.192Z,80.70
2019-01-23T05:19:41.052Z,93.20
2019-01-23T05:22:09.178Z,80.43
2019-01-23T05:24:36.051Z,86.83
2019-01-23T05:27:03.002Z,73.33
2019-01-23T05:29:29.965Z,93.47
2019-01-23T05:31:56.825Z,104.67
2019-01-23T05:34:23.655Z,109.37
2019-01-23T05:36:50.556Z,94.23
2019-01-23T05:39:17.400Z,109.80
2019-01-23T05:41:44.320Z,107.10
2019-01-23T05:44:11.175Z,106.70
2019-01-23T05:46:38.131Z,104.47
2019-01-23T05:49:05.061Z,123.70
2019-01-23T05:51:31.942Z,117.57
2019-01-23T05:53:58.808Z,100.53
2019-01-23T05:56:25.840Z,94.50
2019-01-23T05:58:52.835Z,93.20
2019-01-23T06:01:19.784Z,105.93
2019-01-23T06:03:46.608Z,117.40
2019-01-23T06:06:13.451Z,97.43
2019-01-23T06:08:40.289Z,104.60
2019-01-23T06:11:07.111Z,113.90
2019-01-23T06:13:34.001Z,124.60
2019-01-23T06:16:00.844Z,104.57
2019-01-23T06:18:27.617Z,116.40
2019-01-23T06:20:55.646Z,120.17
2019-01-23T06:23:22.585Z,115.30
2019-01-23T06:25:49.438Z,112.17
2019-01-23T06:28:16.309Z,124.50
2019-01-23T06:30:43.201Z,100.23
2019-01-23T06:33:10.069Z,123.77
2019-01-23T06:35:37.969Z,105.67
2019-01-23T06:38:04.795Z,110.37
2019-01-23T06:40:31.595Z,119.23
2019-01-23T06:42:58.501Z,91.80
2019-01-23T06:45:25.374Z,129.80
2019-01-23T06:47:53.045Z,122.73
2019-01-23T06:50:20.549Z,124.17
2019-01-23T06:52:47.441Z,117.27
2019-01-23T06:55:14.304Z,110.50
2019-01-23T06:57:41.611Z,117.30
2019-01-23T07:00:16.869Z,103.67
2019-01-23T07:02:39.429Z,122.87
2019-01-23T07:05:06.579Z,134.33
2019-01-23T07:07:33.513Z,123.70
2019-01-23T07:10:00.398Z,129.07
2019-01-23T07:12:27.252Z,141.67
2019-01-23T07:14:54.135Z,127.23
2019-01-23T07:17:21.049Z,161.80
2019-01-23T07:19:47.897Z,129.83
2019-01-23T07:22:14.769Z,116.60
2019-01-23T07:24:41.607Z,142.27
2019-01-23T07:27:08.479Z,151.90
2019-01-23T07:29:35.311Z,142.00
2019-01-23T07:32:02.264Z,132.07
2019-01-23T07:34:29.219Z,130.97
2019-01-23T07:36:56.090Z,160.00
2019-01-23T07:39:22.941Z,96.70
2019-01-23T07:41:49.980Z,129.13
2019-01-23T07:44:17.150Z,157.03
2019-01-23T07:46:44.007Z,134.37
2019-01-23T07:49:11.089Z,185.80
2019-01-23T07:51:38.027Z,96.17
2019-01-23T07:54:04.889Z,144.47
2019-01-23T07:56:31.764Z,165.07
2019-01-23T07:58:58.578Z,151.50
2019-01-23T08:01:25.444Z,140.83
2019-01-23T08:03:52.365Z,179.77
2019-01-23T08:06:19.196Z,170.37
2019-01-23T08:08:46.024Z,174.83
2019-01-23T08:11:12.878Z,175.63
2019-01-23T08:13:39.704Z,176.63
2019-01-23T08:16:06.543Z,166.20
2019-01-23T08:18:33.656Z,122.10
2019-01-23T08:21:00.525Z,161.73
2019-01-23T08:23:27.375Z,174.57
2019-01-23T08:25:55.454Z,174.23
2019-01-23T08:28:22.377Z,204.77
2019-01-23T08:30:49.201Z,130.10
2019-01-23T08:33:16.060Z,149.27
2019-01-23T08:35:42.997Z,169.20
2019-01-23T08:38:09.831Z,173.37
2019-01-23T08:40:36.676Z,143.23
2019-01-23T08:43:03.589Z,208.53
2019-01-23T08:45:30.592Z,167.13
2019-01-23T08:47:57.573Z,130.27
2019-01-23T08:50:25.881Z,174.00
2019-01-23T08:52:52.699Z,179.93
2019-01-23T08:55:19.773Z,150.80
2019-01-23T08:57:46.645Z,171.10
2019-01-23T09:00:13.715Z,167.80
2019-01-23T09:02:40.746Z,181.07
2019-01-23T09:05:08.010Z,180.23
2019-01-23T09:07:34.863Z,152.73
2019-01-23T09:10:02.005Z,205.83
2019-01-23T09:12:28.937Z,219.30
2019-01-23T09:14:55.758Z,168.53
2019-01-23T09:17:22.644Z,189.57
2019-01-23T09:19:49.486Z,231.07
2019-01-23T09:22:16.333Z,163.10
2019-01-23T09:24:43.349Z,202.10
2019-01-23T09:27:10.216Z,212.60
2019-01-23T09:29:37.190Z,206.10
2019-01-23T09:32:22.518Z,132.63
2019-01-23T09:35:14.572Z,159.23
2019-01-23T09:37:46.608Z,210.07
2019-01-23T09:40:31.763Z,184.07
2019-01-23T09:43:18.359Z,188.87
2019-01-23T09:46:07.875Z,233.50
2019-01-23T09:48:47.984Z,245.63
2019-01-23T09:51:33.160Z,241.70
2019-01-23T09:54:02.668Z,217.33
2019-01-23T09:56:29.464Z,183.87
2019-01-23T09:58:56.371Z,197.63
2019-01-23T10:01:23.236Z,202.97
2019-01-23T10:03:50.127Z,224.37
2019-01-23T10:06:17.012Z,199.17
2019-01-23T10:08:45.207Z,192.90
2019-01-23T10:11:12.393Z,196.27
2019-01-23T10:13:39.397Z,219.90
2019-01-23T10:16:11.300Z,181.77
2019-01-23T10:18:38.196Z,190.37
2019-01-23T10:21:05.251Z,168.80
2019-01-23T10:23:32.154Z,235.13
2019-01-23T10:25:58.975Z,260.23
2019-01-23T10:28:26.854Z,187.80
2019-01-23T10:30:53.827Z,243.70
2019-01-23T10:33:22.821Z,215.17
2019-01-23T10:35:49.978Z,203.60
2019-01-23T10:38:16.932Z,170.67
2019-01-23T10:40:43.780Z,139.30
2019-01-23T10:43:10.780Z,225.57
2019-01-23T10:45:37.789Z,235.43
2019-01-23T10:48:04.616Z,188.80
2019-01-23T10:50:31.713Z,239.97
2019-01-23T10:52:58.612Z,203.47
2019-01-23T10:55:25.572Z,220.93
2019-01-23T10:57:52.394Z,235.40
2019-01-23T11:00:19.556Z,184.83
2019-01-23T11:02:46.480Z,195.37
2019-01-23T11:05:17.170Z,231.10
2019-01-23T11:07:49.534Z,207.63
2019-01-23T11:10:18.028Z,178.63
2019-01-23T11:12:44.889Z,212.53
2019-01-23T11:15:12.179Z,207.47
2019-01-23T11:17:39.128Z,221.83
2019-01-23T11:20:07.482Z,208.07
2019-01-23T11:22:34.320Z,231.60
2019-01-23T11:25:01.521Z,184.43
2019-01-23T11:27:28.561Z,168.23
2019-01-23T11:29:55.633Z,197.27
2019-01-23T11:32:22.459Z,156.77
2019-01-23T11:34:49.321Z,148.70
2019-01-23T11:37:16.187Z,138.17
2019-01-23T11:39:43.036Z,168.20
2019-01-23T11:42:09.860Z,174.73
2019-01-23T11:44:36.792Z,200.00
2019-01-23T11:47:03.716Z,134.17
2019-01-23T11:49:30.548Z,176.47
2019-01-23T11:51:58.483Z,164.13
2019-01-23T11:54:25.764Z,206.17
2019-01-23T11:56:52.603Z,209.47
2019-01-23T11:59:19.546Z,171.37
2019-01-23T12:01:46.417Z,195.43
2019-01-23T12:04:13.248Z,209.60
2019-01-23T12:06:40.424Z,186.73
2019-01-23T12:09:08.189Z,180.73
2019-01-23T12:11:35.033Z,159.73
2019-01-23T12:14:01.880Z,204.77
2019-01-23T12:16:28.705Z,209.10
2019-01-23T12:18:55.531Z,217.57
2019-01-23T12:21:22.482Z,196.63
2019-01-23T12:23:49.348Z,166.13
2019-01-23T12:26:16.420Z,223.10
2019-01-23T12:28:44.458Z,199.73
2019-01-23T12:31:14.019Z,214.20
2019-01-23T12:33:41.019Z,210.97
2019-01-23T12:36:07.901Z,196.10
2019-01-23T12:38:34.851Z,166.93
2019-01-23T12:41:01.719Z,206.53
2019-01-23T12:43:28.791Z,187.77
2019-01-23T12:45:55.709Z,182.80
2019-01-23T12:48:22.610Z,196.77
2019-01-23T12:50:50.554Z,148.50
2019-01-23T12:53:17.409Z,199.13
2019-01-23T12:55:44.298Z,187.37
2019-01-23T12:58:11.191Z,202.83
2019-01-23T13:00:38.188Z,145.47
2019-01-23T13:03:05.187Z,199.37
2019-01-23T13:05:33.228Z,160.87
2019-01-23T13:08:00.039Z,121.57
2019-01-23T13:10:26.895Z,178.10
2019-01-23T13:12:53.947Z,124.03
2019-01-23T13:15:21.731Z,177.37
2019-01-23T13:17:48.668Z,182.90
2019-01-23T13:20:16.099Z,185.60
2019-01-23T13:22:43.996Z,183.10
2019-01-23T13:25:12.448Z,150.37
2019-01-23T13:27:39.457Z,139.63
2019-01-23T13:30:07.464Z,182.63
2019-01-23T13:32:34.396Z,176.70
2019-01-23T13:35:02.419Z,147.23
2019-01-23T13:37:29.244Z,84.00
2019-01-23T13:39:56.113Z,144.77
2019-01-23T13:42:23.051Z,142.20
2019-01-23T13:44:50.000Z,116.73
2019-01-23T13:47:16.787Z,118.93
2019-01-23T13:49:43.660Z,107.30
2019-01-23T13:52:10.507Z,126.80
2019-01-23T13:54:37.353Z,133.03
2019-01-23T13:57:04.386Z,126.87
2019-01-23T13:59:31.232Z,104.80
2019-01-23T14:01:58.136Z,146.87
2019-01-23T14:04:24.927Z,159.70
2019-01-23T14:06:51.716Z,124.63
2019-01-23T14:09:18.512Z,147.67
2019-01-23T14:11:45.311Z,156.07
2019-01-23T14:14:12.126Z,105.67
2019-01-23T14:16:38.915Z,117.30
2019-01-23T14:19:05.771Z,125.20
2019-01-23T14:21:32.548Z,103.13
2019-01-23T14:23:59.381Z,127.90
2019-01-23T14:26:26.413Z,112.87
2019-01-23T14:28:53.233Z,113.43
2019-01-23T14:31:20.070Z,130.23
2019-01-23T14:33:46.906Z,99.47
2019-01-23T14:36:13.767Z,119.67
2019-01-23T14:38:40.620Z,100.40
2019-01-23T14:41:07.437Z,115.27
2019-01-23T14:43:34.249Z,117.90
2019-01-23T14:46:01.029Z,105.30
2019-01-23T14:48:27.882Z,131.63
2019-01-23T14:50:54.814Z,120.33
2019-01-23T14:53:21.988Z,93.73
2019-01-23T14:55:48.767Z,90.80
2019-01-23T14:58:16.069Z,99.10
2019-01-23T15:00:42.913Z,93.63
2019-01-23T15:03:09.852Z,90.70
2019-01-23T15:05:36.745Z,103.70
2019-01-23T15:08:03.628Z,84.77
2019-01-23T15:10:30.635Z,85.27
2019-01-23T15:12:57.891Z,74.67
2019-01-23T15:15:24.893Z,87.67
2019-01-23T15:17:51.906Z,97.27
2019-01-23T15:20:20.111Z,87.93
2019-01-23T15:22:46.955Z,103.73
2019-01-23T15:25:14.247Z,108.57
2019-01-23T15:27:41.192Z,78.60
2019-01-23T15:30:08.635Z,79.30
2019-01-23T15:32:35.452Z,85.23
2019-01-23T15:35:02.552Z,105.20
2019-01-23T15:37:29.399Z,72.10
2019-01-23T15:39:56.195Z,61.97
2019-01-23T15:42:23.058Z,72.73
2019-01-23T15:44:49.901Z,82.53
2019-01-23T15:47:16.735Z,72.97
2019-01-23T15:49:43.506Z,59.13
2019-01-23T15:52:10.290Z,71.80
2019-01-23T15:54:37.289Z,61.47
2019-01-23T15:57:04.101Z,64.63
2019-01-23T15:59:30.892Z,61.00
2019-01-23T16:01:57.825Z,66.43
2019-01-23T16:04:24.616Z,67.83
2019-01-23T16:06:51.450Z,52.30
2019-01-23T16:09:18.466Z,45.90
2019-01-23T16:11:45.264Z,65.10
2019-01-23T16:14:12.069Z,70.87
2019-01-23T16:16:39.236Z,46.43
2019-01-23T16:19:06.146Z,71.87
2019-01-23T16:21:33.050Z,72.83
2019-01-23T16:23:59.889Z,57.27
2019-01-23T16:26:26.715Z,61.57
2019-01-23T16:28:53.543Z,61.47
2019-01-23T16:31:20.351Z,50.23
2019-01-23T16:33:47.142Z,65.20
2019-01-23T16:36:13.926Z,56.87
2019-01-23T16:38:41.068Z,50.27
2019-01-23T16:41:08.809Z,40.80
2019-01-23T16:43:35.755Z,34.97
2019-01-23T16:46:02.955Z,44.30
2019-01-23T16:48:29.758Z,36.27
2019-01-23T16:50:57.701Z,50.57
2019-01-23T16:53:24.776Z,52.60
2019-01-23T16:55:51.646Z,54.00
2019-01-23T16:58:18.558Z,51.70
2019-01-23T17:00:45.477Z,46.30
2019-01-23T17:03:12.586Z,46.17
2019-01-23T17:05:39.403Z,54.47
2019-01-23T17:08:07.237Z,49.53
2019-01-23T17:10:34.152Z,53.27
2019-01-23T17:13:01.044Z,46.33
2019-01-23T17:15:27.847Z,52.30
2019-01-23T17:17:54.691Z,60.57
2019-01-23T17:20:23.020Z,52.53
2019-01-23T17:22:49.964Z,43.87
2019-01-23T17:25:16.825Z,45.83
2019-01-23T17:27:43.944Z,49.90
2019-01-23T17:30:11.274Z,47.10
2019-01-23T17:32:38.144Z,51.43
2019-01-23T17:35:05.535Z,46.37
2019-01-23T17:37:32.368Z,42.83
2019-01-23T17:39:59.304Z,43.57
2019-01-23T17:42:27.343Z,50.63
2019-01-23T17:44:54.411Z,25.03
2019-01-23T17:47:21.450Z,55.30
2019-01-23T17:49:48.395Z,45.93
2019-01-23T17:52:15.224Z,42.43
2019-01-23T17:54:42.011Z,54.17
2019-01-23T17:57:08.820Z,45.03
2019-01-23T17:59:37.298Z,39.27
2019-01-23T18:02:05.561Z,57.97
2019-01-23T18:04:32.423Z,51.40
2019-01-23T18:06:59.441Z,38.70
2019-01-23T18:09:26.310Z,43.37
2019-01-23T18:11:53.156Z,42.87
2019-01-23T18:14:20.085Z,48.03
2019-01-23T18:16:46.879Z,44.57
2019-01-23T18:19:13.716Z,42.97
2019-01-23T18:21:40.496Z,45.90
2019-01-23T18:24:07.372Z,44.03
2019-01-23T18:26:37.719Z,32.60
2019-01-23T18:29:03.171Z,41.33
2019-01-23T18:31:38.275Z,37.37
2019-01-23T18:34:27.569Z,29.60
2019-01-23T18:37:14.138Z,56.23
2019-01-23T18:39:53.431Z,36.33
2019-01-23T18:42:50.496Z,36.30
2019-01-23T18:45:23.120Z,42.77
2019-01-23T18:48:13.097Z,48.57
2019-01-23T18:50:44.595Z,49.87
2019-01-23T18:53:12.422Z,45.47
2019-01-23T18:55:39.717Z,47.70
2019-01-23T18:58:06.944Z,53.47
2019-01-23T19:00:33.943Z,50.93
2019-01-23T19:03:06.945Z,46.10
2019-01-23T19:05:29.953Z,50.43
2019-01-23T19:07:56.994Z,33.80
2019-01-23T19:10:23.776Z,40.80
2019-01-23T19:12:50.740Z,53.23
2019-01-23T19:15:17.796Z,31.00
2019-01-23T19:17:44.592Z,33.73
2019-01-23T19:20:15.429Z,37.53
2019-01-23T19:22:42.423Z,42.63
2019-01-23T19:25:09.421Z,39.50
2019-01-23T19:27:36.270Z,32.03
2019-01-23T19:30:09.121Z,32.63
2019-01-23T19:32:32.732Z,49.10
2019-01-23T19:34:59.639Z,30.73
2019-01-23T19:37:26.588Z,35.10
2019-01-23T19:39:53.370Z,53.57
2019-01-23T19:42:20.222Z,41.00
2019-01-23T19:44:47.317Z,47.60
2019-01-23T19:47:14.255Z,52.90
2019-01-23T19:49:41.200Z,43.60
2019-01-23T19:52:08.142Z,43.23
2019-01-23T19:54:34.951Z,46.77
2019-01-23T19:57:02.113Z,44.47
2019-01-23T19:59:28.921Z,47.23
2019-01-23T20:01:55.829Z,60.37
2019-01-23T20:04:22.655Z,47.33
2019-01-23T20:06:49.591Z,40.43
2019-01-23T20:09:16.447Z,31.23
2019-01-23T20:11:43.515Z,39.47
2019-01-23T20:14:10.544Z,52.07
2019-01-23T20:16:37.679Z,44.87
2019-01-23T20:19:07.269Z,56.63
2019-01-23T20:21:34.323Z,49.33
2019-01-23T20:24:01.329Z,27.17
2019-01-23T20:26:28.728Z,39.13
2019-01-23T20:28:55.949Z,38.10
2019-01-23T20:31:23.168Z,46.73
2019-01-23T20:33:50.596Z,39.40
2019-01-23T20:36:17.732Z,39.50
2019-01-23T20:38:44.942Z,47.40
2019-01-23T20:41:12.167Z,46.17
2019-01-23T20:43:39.589Z,41.23
2019-01-23T20:46:06.683Z,53.27
2019-01-23T20:48:33.851Z,44.47
2019-01-23T20:51:01.087Z,52.30
2019-01-23T20:53:28.397Z,51.33
2019-01-23T20:55:55.556Z,55.87
2019-01-23T20:58:22.898Z,54.80
2019-01-23T21:00:50.035Z,57.10
2019-01-23T21:03:17.068Z,64.07
2019-01-23T21:05:44.267Z,50.17
2019-01-23T21:08:11.481Z,49.47
2019-01-23T21:10:38.603Z,49.87
2019-01-23T21:13:05.615Z,58.30
2019-01-23T21:15:33.158Z,38.90
2019-01-23T21:18:00.816Z,53.80
2019-01-23T21:20:29.598Z,56.63
2019-01-23T21:22:56.890Z,47.83
2019-01-23T21:25:24.235Z,50.93
2019-01-23T21:27:51.336Z,48.73
2019-01-23T21:30:20.212Z,43.33
2019-01-23T21:32:47.395Z,52.63
2019-01-23T21:35:14.727Z,51.57
2019-01-23T21:37:42.075Z,55.90
2019-01-23T21:40:11.369Z,49.47
2019-01-23T21:42:38.538Z,50.27
2019-01-23T21:45:06.923Z,53.60
2019-01-23T21:47:34.095Z,43.93
2019-01-23T21:50:02.408Z,61.60
2019-01-23T21:52:29.848Z,46.43
2019-01-23T21:54:57.395Z,57.10
2019-01-23T21:57:24.546Z,44.93
2019-01-23T21:59:51.820Z,42.47
2019-01-23T22:02:19.057Z,52.77
2019-01-23T22:04:45.991Z,47.73
2019-01-23T22:07:13.143Z,50.60
2019-01-23T22:09:40.353Z,49.10
2019-01-23T22:12:07.264Z,46.40
2019-01-23T22:14:34.099Z,50.03
2019-01-23T22:17:00.981Z,46.17
2019-01-23T22:19:30.647Z,50.00
2019-01-23T22:21:57.511Z,36.00
2019-01-23T22:24:24.644Z,67.43
2019-01-23T22:26:51.456Z,42.27
2019-01-23T22:29:18.231Z,57.43
2019-01-23T22:31:45.076Z,53.00
2019-01-23T22:34:11.919Z,58.10
2019-01-23T22:36:39.668Z,38.57
2019-01-23T22:39:07.362Z,42.40
2019-01-23T22:41:34.257Z,45.13
2019-01-23T22:44:01.187Z,41.63
2019-01-23T22:46:28.977Z,52.57
2019-01-23T22:48:55.891Z,45.70
2019-01-23T22:51:22.744Z,61.70
2019-01-23T22:53:49.819Z,46.20
2019-01-23T22:56:16.687Z,50.23
2019-01-23T22:58:43.564Z,48.77
2019-01-23T23:01:15.803Z,52.60
2019-01-23T23:03:42.831Z,57.20
2019-01-23T23:06:09.753Z,56.03
2019-01-23T23:08:37.803Z,38.80
2019-01-23T23:11:04.938Z,39.93
2019-01-23T23:13:32.033Z,51.93
2019-01-23T23:15:58.848Z,57.67
2019-01-23T23:18:25.668Z,48.60
2019-01-23T23:20:52.508Z,52.93
2019-01-23T23:23:19.398Z,44.77
2019-01-23T23:25:46.284Z,41.57
2019-01-23T23:28:13.203Z,49.40
2019-01-23T23:30:40.044Z,55.80
2019-01-23T23:33:06.873Z,46.40
2019-01-23T23:35:33.715Z,46.10
2019-01-23T23:38:00.689Z,35.67
2019-01-23T23:40:27.602Z,48.17
2019-01-23T23:42:54.446Z,60.20
2019-01-23T23:45:21.759Z,57.33
2019-01-23T23:47:48.908Z,48.73
2019-01-23T23:50:15.948Z,40.60
2019-01-23T23:52:42.899Z,36.60
2019-01-23T23:55:10.213Z,61.13
2019-01-23T23:57:37.263Z,47.37
